createdAt,value
2023-04-16T00:00:47.598Z,0.00
2023-04-16T00:01:47.614Z,0.00
2023-04-16T00:02:47.703Z,0.00
2023-04-16T00:03:47.850Z,0.00
2023-04-16T00:04:47.611Z,0.00
2023-04-16T00:05:47.537Z,0.00
2023-04-16T00:06:47.531Z,0.00
2023-04-16T00:07:47.515Z,0.00
2023-04-16T00:08:47.483Z,0.00
2023-04-16T00:09:47.477Z,0.00
2023-04-16T00:11:08.449Z,0.00
2023-04-16T00:11:47.474Z,0.00
2023-04-16T00:12:47.460Z,0.00
2023-04-16T00:13:47.425Z,0.00
2023-04-16T00:14:47.433Z,0.00
2023-04-16T00:15:47.388Z,0.00
2023-04-16T00:16:47.474Z,0.00
2023-04-16T00:17:47.425Z,0.00
2023-04-16T00:18:47.436Z,0.00
2023-04-16T00:19:47.332Z,0.00
2023-04-16T00:20:47.353Z,0.00
2023-04-16T00:21:47.383Z,0.00
2023-04-16T00:22:47.337Z,0.00
2023-04-16T00:23:47.296Z,0.00
2023-04-16T00:24:47.299Z,0.00
2023-04-16T00:25:47.259Z,0.00
2023-04-16T00:26:47.309Z,0.00
2023-04-16T00:27:47.304Z,0.00
2023-04-16T00:28:47.253Z,0.00
2023-04-16T00:29:47.230Z,0.00
2023-04-16T00:30:47.235Z,0.00
2023-04-16T00:31:47.203Z,0.00
2023-04-16T00:32:47.289Z,0.00
2023-04-16T00:33:47.197Z,0.00
2023-04-16T00:34:47.155Z,0.00
2023-04-16T00:35:47.151Z,0.00
2023-04-16T00:36:47.161Z,0.00
2023-04-16T00:37:47.136Z,0.00
2023-04-16T00:38:47.111Z,0.00
2023-04-16T00:39:47.108Z,0.00
2023-04-16T00:40:47.101Z,0.00
2023-04-16T00:41:47.110Z,0.00
2023-04-16T00:42:47.059Z,0.00
2023-04-16T00:43:47.058Z,0.00
2023-04-16T00:44:47.055Z,0.00
2023-04-16T00:45:47.088Z,0.00
2023-04-16T00:46:47.216Z,0.00
2023-04-16T00:47:47.053Z,0.00
2023-04-16T00:48:47.022Z,0.00
2023-04-16T00:49:47.012Z,0.00
2023-04-16T00:50:46.975Z,0.00
2023-04-16T00:51:46.949Z,0.00
2023-04-16T00:52:46.928Z,0.00
2023-04-16T00:53:46.936Z,0.00
2023-04-16T00:54:46.913Z,0.00
2023-04-16T00:55:46.937Z,0.00
2023-04-16T00:56:46.913Z,0.00
2023-04-16T00:57:46.886Z,0.00
2023-04-16T00:58:46.846Z,0.00
2023-04-16T00:59:46.835Z,0.00
2023-04-16T01:00:46.852Z,0.00
2023-04-16T01:01:46.899Z,0.00
2023-04-16T01:02:46.939Z,0.00
2023-04-16T01:03:46.886Z,0.00
2023-04-16T01:04:46.798Z,0.00
2023-04-16T01:05:46.762Z,0.00
2023-04-16T01:06:46.778Z,0.00
2023-04-16T01:07:46.763Z,0.00
2023-04-16T01:08:46.765Z,0.00
2023-04-16T01:09:46.723Z,0.00
2023-04-16T01:10:46.726Z,0.00
2023-04-16T01:11:46.683Z,0.00
2023-04-16T01:12:46.710Z,0.00
2023-04-16T01:13:46.669Z,0.00
2023-04-16T01:14:46.657Z,0.00
2023-04-16T01:15:46.684Z,0.00
2023-04-16T01:16:46.647Z,0.00
2023-04-16T01:17:46.715Z,0.00
2023-04-16T01:18:46.637Z,0.00
2023-04-16T01:19:46.599Z,0.00
2023-04-16T01:20:46.599Z,0.00
2023-04-16T01:21:46.587Z,0.00
2023-04-16T01:22:46.549Z,0.00
2023-04-16T01:23:46.557Z,0.00
2023-04-16T01:24:46.571Z,0.00
2023-04-16T01:25:46.523Z,0.00
2023-04-16T01:26:46.530Z,0.00
2023-04-16T01:27:46.494Z,0.00
2023-04-16T01:28:46.497Z,0.00
2023-04-16T01:29:46.459Z,0.00
2023-04-16T01:30:46.495Z,0.00
2023-04-16T01:31:46.530Z,0.00
2023-04-16T01:32:46.481Z,0.00
2023-04-16T01:33:46.419Z,0.00
2023-04-16T01:34:46.451Z,0.00
2023-04-16T01:35:46.401Z,0.00
2023-04-16T01:36:46.435Z,0.00
2023-04-16T01:37:46.406Z,0.00
2023-04-16T01:38:46.364Z,0.00
2023-04-16T01:39:46.354Z,0.00
2023-04-16T01:40:46.330Z,0.00
2023-04-16T01:41:46.312Z,0.00
2023-04-16T01:42:46.333Z,0.00
2023-04-16T01:43:46.300Z,0.00
2023-04-16T01:44:46.302Z,0.00
2023-04-16T01:45:46.274Z,0.00
2023-04-16T01:46:46.276Z,0.00
2023-04-16T01:47:46.274Z,0.00
2023-04-16T01:48:46.271Z,0.00
2023-04-16T01:49:46.234Z,0.00
2023-04-16T01:50:46.209Z,0.00
2023-04-16T01:51:46.196Z,0.00
2023-04-16T01:52:46.220Z,0.00
2023-04-16T01:53:46.162Z,0.00
2023-04-16T01:54:46.174Z,0.00
2023-04-16T01:55:46.142Z,0.00
2023-04-16T01:56:46.157Z,0.00
2023-04-16T01:57:46.136Z,0.00
2023-04-16T01:58:46.122Z,0.00
2023-04-16T01:59:46.115Z,0.00
2023-04-16T02:00:46.127Z,0.00
2023-04-16T02:01:46.109Z,0.00
2023-04-16T02:02:46.240Z,0.00
2023-04-16T02:03:46.187Z,0.00
2023-04-16T02:04:46.078Z,0.00
2023-04-16T02:05:46.025Z,0.00
2023-04-16T02:06:46.010Z,0.00
2023-04-16T02:07:46.039Z,0.00
2023-04-16T02:08:45.995Z,0.00
2023-04-16T02:09:45.984Z,0.00
2023-04-16T02:10:45.965Z,0.00
2023-04-16T02:11:45.952Z,0.00
2023-04-16T02:12:45.961Z,0.00
2023-04-16T02:13:45.965Z,0.00
2023-04-16T02:14:45.903Z,0.00
2023-04-16T02:15:45.901Z,0.00
2023-04-16T02:16:45.920Z,0.00
2023-04-16T02:17:45.902Z,0.00
2023-04-16T02:18:45.901Z,0.00
2023-04-16T02:19:45.839Z,0.00
2023-04-16T02:20:45.838Z,0.00
2023-04-16T02:21:45.828Z,0.00
2023-04-16T02:22:45.872Z,0.00
2023-04-16T02:23:45.808Z,0.00
2023-04-16T02:24:45.795Z,0.00
2023-04-16T02:25:45.771Z,0.00
2023-04-16T02:26:45.741Z,0.00
2023-04-16T02:27:45.768Z,0.00
2023-04-16T02:28:45.772Z,0.00
2023-04-16T02:29:45.742Z,0.00
2023-04-16T02:30:45.709Z,0.00
2023-04-16T02:31:45.872Z,0.00
2023-04-16T02:32:45.682Z,0.00
2023-04-16T02:33:45.643Z,0.00
2023-04-16T02:34:45.650Z,0.00
2023-04-16T02:35:45.665Z,0.00
2023-04-16T02:36:45.617Z,0.00
2023-04-16T02:37:45.597Z,0.00
2023-04-16T02:38:45.611Z,0.00
2023-04-16T02:39:45.592Z,0.00
2023-04-16T02:40:45.646Z,0.00
2023-04-16T02:41:45.573Z,0.00
2023-04-16T02:42:45.530Z,0.00
2023-04-16T02:43:45.510Z,0.00
2023-04-16T02:44:45.533Z,0.00
2023-04-16T02:45:45.823Z,0.00
2023-04-16T02:46:45.487Z,0.00
2023-04-16T02:47:45.523Z,0.00
2023-04-16T02:48:45.449Z,0.00
2023-04-16T02:49:45.455Z,0.00
2023-04-16T02:50:45.462Z,0.00
2023-04-16T02:51:45.453Z,0.00
2023-04-16T02:52:45.422Z,0.00
2023-04-16T02:53:45.421Z,0.00
2023-04-16T02:54:45.387Z,0.00
2023-04-16T02:55:45.376Z,0.00
2023-04-16T02:56:45.387Z,0.00
2023-04-16T02:57:45.336Z,0.00
2023-04-16T02:58:45.320Z,0.00
2023-04-16T02:59:45.566Z,0.00
2023-04-16T03:00:45.319Z,0.00
2023-04-16T03:01:45.350Z,0.00
2023-04-16T03:02:45.409Z,0.00
2023-04-16T03:03:45.317Z,0.00
2023-04-16T03:04:45.259Z,0.00
2023-04-16T03:05:45.296Z,0.00
2023-04-16T03:06:45.229Z,0.00
2023-04-16T03:07:45.215Z,0.00
2023-04-16T03:08:45.217Z,0.00
2023-04-16T03:09:45.176Z,0.00
2023-04-16T03:10:45.194Z,0.00
2023-04-16T03:11:45.162Z,0.00
2023-04-16T03:12:45.150Z,0.00
2023-04-16T03:13:45.138Z,0.00
2023-04-16T03:14:45.125Z,0.00
2023-04-16T03:15:45.163Z,0.00
2023-04-16T03:16:45.098Z,0.00
2023-04-16T03:17:45.163Z,0.00
2023-04-16T03:18:45.072Z,0.00
2023-04-16T03:19:45.063Z,0.00
2023-04-16T03:20:45.085Z,0.00
2023-04-16T03:21:45.045Z,0.00
2023-04-16T03:22:45.056Z,0.00
2023-04-16T03:23:45.021Z,0.00
2023-04-16T03:24:45.007Z,0.00
2023-04-16T03:25:44.988Z,0.00
2023-04-16T03:26:45.013Z,0.00
2023-04-16T03:27:44.994Z,0.00
2023-04-16T03:28:44.953Z,0.00
2023-04-16T03:29:44.953Z,0.00
2023-04-16T03:30:44.936Z,0.00
2023-04-16T03:31:44.933Z,0.00
2023-04-16T03:32:45.056Z,0.00
2023-04-16T03:33:44.878Z,0.00
2023-04-16T03:34:44.893Z,0.00
2023-04-16T03:35:44.900Z,0.00
2023-04-16T03:36:44.840Z,0.00
2023-04-16T03:37:44.856Z,0.00
2023-04-16T03:38:44.834Z,0.00
2023-04-16T03:39:44.805Z,0.00
2023-04-16T03:40:44.840Z,0.00
2023-04-16T03:41:44.827Z,0.00
2023-04-16T03:42:44.777Z,0.00
2023-04-16T03:43:44.777Z,0.00
2023-04-16T03:44:44.765Z,0.00
2023-04-16T03:45:44.759Z,0.00
2023-04-16T03:46:44.743Z,0.00
2023-04-16T03:47:44.774Z,0.00
2023-04-16T03:48:44.701Z,0.00
2023-04-16T03:49:44.697Z,0.00
2023-04-16T03:50:44.667Z,0.00
2023-04-16T03:51:44.684Z,0.00
2023-04-16T03:52:44.672Z,0.00
2023-04-16T03:53:44.734Z,0.00
2023-04-16T03:54:44.620Z,0.00
2023-04-16T03:55:44.629Z,0.00
2023-04-16T03:56:44.623Z,0.00
2023-04-16T03:57:44.584Z,0.00
2023-04-16T03:58:44.583Z,0.00
2023-04-16T03:59:44.555Z,0.00
2023-04-16T04:00:44.540Z,0.00
2023-04-16T04:01:44.554Z,0.00
2023-04-16T04:02:44.749Z,0.00
2023-04-16T04:03:44.706Z,0.00
2023-04-16T04:04:44.665Z,0.00
2023-04-16T04:05:44.468Z,0.00
2023-04-16T04:06:44.455Z,0.00
2023-04-16T04:07:44.488Z,0.00
2023-04-16T04:08:44.510Z,0.00
2023-04-16T04:09:44.438Z,4.00
2023-04-16T04:10:44.449Z,0.00
2023-04-16T04:11:44.428Z,4.00
2023-04-16T04:12:44.406Z,4.00
2023-04-16T04:13:44.410Z,0.00
2023-04-16T04:14:44.363Z,0.00
2023-04-16T04:15:44.344Z,4.00
2023-04-16T04:16:44.470Z,4.00
2023-04-16T04:17:44.338Z,8.00
2023-04-16T04:18:44.556Z,8.00
2023-04-16T04:19:54.277Z,12.00
2023-04-16T04:20:44.302Z,12.00
2023-04-16T04:21:44.291Z,12.00
2023-04-16T04:22:44.278Z,16.00
2023-04-16T04:23:44.250Z,16.00
2023-04-16T04:24:44.257Z,20.00
2023-04-16T04:25:44.235Z,20.00
2023-04-16T04:26:44.248Z,28.00
2023-04-16T04:27:44.227Z,28.00
2023-04-16T04:28:44.192Z,32.00
2023-04-16T04:29:44.196Z,36.00
2023-04-16T04:30:44.154Z,48.00
2023-04-16T04:31:44.178Z,52.00
2023-04-16T04:32:44.183Z,52.00
2023-04-16T04:33:44.150Z,52.00
2023-04-16T04:34:44.139Z,56.00
2023-04-16T04:35:44.088Z,56.00
2023-04-16T04:36:44.079Z,56.00
2023-04-16T04:37:44.087Z,64.00
2023-04-16T04:38:44.046Z,68.00
2023-04-16T04:39:44.057Z,80.00
2023-04-16T04:40:44.031Z,96.00
2023-04-16T04:41:44.008Z,108.00
2023-04-16T04:42:43.995Z,116.00
2023-04-16T04:43:44.033Z,112.00
2023-04-16T04:44:43.982Z,124.00
2023-04-16T04:45:43.998Z,124.00
2023-04-16T04:46:43.943Z,128.00
2023-04-16T04:47:43.973Z,132.00
2023-04-16T04:48:43.941Z,148.00
2023-04-16T04:49:43.921Z,160.00
2023-04-16T04:50:43.909Z,176.00
2023-04-16T04:51:43.904Z,188.00
2023-04-16T04:52:43.912Z,176.00
2023-04-16T04:53:43.943Z,180.00
2023-04-16T04:54:43.937Z,200.00
2023-04-16T04:55:43.868Z,204.00
2023-04-16T04:56:43.829Z,228.00
2023-04-16T04:57:43.799Z,248.00
2023-04-16T04:58:43.837Z,256.00
2023-04-16T04:59:43.791Z,272.00
2023-04-16T05:00:43.874Z,264.00
2023-04-16T05:01:43.785Z,272.00
2023-04-16T05:02:43.866Z,312.00
2023-04-16T05:03:43.788Z,340.00
2023-04-16T05:04:43.772Z,376.00
2023-04-16T05:05:43.710Z,376.00
2023-04-16T05:06:43.729Z,396.00
2023-04-16T05:07:43.713Z,460.00
2023-04-16T05:08:43.685Z,500.00
2023-04-16T05:09:43.669Z,508.00
2023-04-16T05:10:43.672Z,512.00
2023-04-16T05:11:43.655Z,484.00
2023-04-16T05:12:43.615Z,492.00
2023-04-16T05:13:43.615Z,584.00
2023-04-16T05:14:43.612Z,604.00
2023-04-16T05:15:43.640Z,628.00
2023-04-16T05:16:43.628Z,668.00
2023-04-16T05:17:43.602Z,728.00
2023-04-16T05:18:43.540Z,748.00
2023-04-16T05:19:43.524Z,776.00
2023-04-16T05:20:43.545Z,812.00
2023-04-16T05:21:43.530Z,812.00
2023-04-16T05:22:43.530Z,836.00
2023-04-16T05:23:43.502Z,760.00
2023-04-16T05:24:43.524Z,776.00
2023-04-16T05:25:43.502Z,796.00
2023-04-16T05:26:43.458Z,820.00
2023-04-16T05:27:43.490Z,780.00
2023-04-16T05:28:43.433Z,728.00
2023-04-16T05:29:43.426Z,820.00
2023-04-16T05:30:43.438Z,844.00
2023-04-16T05:31:43.397Z,812.00
2023-04-16T05:32:43.429Z,764.00
2023-04-16T05:33:43.379Z,708.00
2023-04-16T05:34:43.342Z,756.00
2023-04-16T05:35:43.338Z,772.00
2023-04-16T05:36:43.342Z,768.00
2023-04-16T05:37:43.318Z,780.00
2023-04-16T05:38:43.382Z,796.00
2023-04-16T05:39:43.319Z,852.00
2023-04-16T05:40:43.300Z,848.00
2023-04-16T05:41:43.266Z,912.00
2023-04-16T05:42:43.239Z,928.00
2023-04-16T05:43:43.232Z,828.00
2023-04-16T05:44:43.241Z,792.00
2023-04-16T05:45:43.294Z,864.00
2023-04-16T05:46:43.256Z,836.00
2023-04-16T05:47:43.227Z,828.00
2023-04-16T05:48:43.188Z,916.00
2023-04-16T05:49:43.170Z,888.00
2023-04-16T05:50:44.076Z,904.00
2023-04-16T05:51:43.192Z,956.00
2023-04-16T05:52:43.202Z,1084.00
2023-04-16T05:53:43.109Z,1144.00
2023-04-16T05:54:43.109Z,1104.00
2023-04-16T05:55:43.104Z,1224.00
2023-04-16T05:56:43.090Z,1108.00
2023-04-16T05:57:43.075Z,996.00
2023-04-16T05:58:43.082Z,1088.00
2023-04-16T05:59:43.044Z,1264.00
2023-04-16T06:00:43.079Z,1148.00
2023-04-16T06:01:43.058Z,1084.00
2023-04-16T06:02:43.137Z,1184.00
2023-04-16T06:03:43.049Z,1356.00
2023-04-16T06:04:43.023Z,1476.00
2023-04-16T06:05:43.018Z,1792.00
2023-04-16T06:06:42.963Z,2152.00
2023-04-16T06:07:42.956Z,2300.00
2023-04-16T06:08:42.950Z,2480.00
2023-04-16T06:09:42.948Z,2456.00
2023-04-16T06:10:42.911Z,2248.00
2023-04-16T06:11:42.901Z,2180.00
2023-04-16T06:12:42.925Z,2240.00
2023-04-16T06:13:42.859Z,2132.00
2023-04-16T06:14:42.833Z,2124.00
2023-04-16T06:15:42.894Z,2140.00
2023-04-16T06:16:43.565Z,2076.00
2023-04-16T06:17:42.837Z,1964.00
2023-04-16T06:18:42.785Z,1716.00
2023-04-16T06:19:42.778Z,1688.00
2023-04-16T06:20:42.765Z,1948.00
2023-04-16T06:21:42.788Z,2176.00
2023-04-16T06:22:42.766Z,1916.00
2023-04-16T06:23:42.759Z,1796.00
2023-04-16T06:24:42.729Z,2120.00
2023-04-16T06:25:42.725Z,1944.00
2023-04-16T06:26:42.725Z,1760.00
2023-04-16T06:30:26.517Z,1836.00
2023-04-16T06:30:32.356Z,1612.00
2023-04-16T06:31:32.394Z,1836.00
2023-04-16T06:32:32.368Z,2016.00
2023-04-16T06:33:32.355Z,2112.00
2023-04-16T06:34:32.324Z,2140.00
2023-04-16T06:35:32.312Z,2336.00
2023-04-16T06:36:32.281Z,2568.00
2023-04-16T06:37:32.285Z,2644.00
2023-04-16T06:38:32.271Z,3036.00
2023-04-16T06:39:32.262Z,3036.00
2023-04-16T06:40:32.248Z,3060.00
2023-04-16T06:41:32.221Z,2888.00
2023-04-16T06:42:32.231Z,2560.00
2023-04-16T06:43:32.208Z,2588.00
2023-04-16T06:44:32.213Z,2464.00
2023-04-16T06:45:32.293Z,2752.00
2023-04-16T06:46:32.200Z,3092.00
2023-04-16T06:47:32.178Z,3376.00
2023-04-16T06:48:32.177Z,3804.00
2023-04-16T06:49:32.110Z,3572.00
2023-04-16T06:50:32.175Z,3316.00
2023-04-16T06:51:32.087Z,4052.00
2023-04-16T06:52:32.120Z,4316.00
2023-04-16T06:53:32.107Z,4532.00
2023-04-16T06:54:32.050Z,4716.00
2023-04-16T06:55:32.061Z,4952.00
2023-04-16T06:56:32.041Z,4936.00
2023-04-16T06:57:32.011Z,4620.00
2023-04-16T06:58:32.007Z,4484.00
2023-04-16T06:59:32.020Z,4576.00
2023-04-16T07:00:32.007Z,4484.00
2023-04-16T07:01:32.014Z,4788.00
2023-04-16T07:02:32.169Z,5124.00
2023-04-16T07:03:32.077Z,4880.00
2023-04-16T07:04:31.975Z,4920.00
2023-04-16T07:05:31.922Z,5148.00
2023-04-16T07:06:31.920Z,4804.00
2023-04-16T07:07:31.917Z,4888.00
2023-04-16T07:08:31.949Z,5148.00
2023-04-16T07:09:31.908Z,5124.00
2023-04-16T07:10:31.855Z,5172.00
2023-04-16T07:11:31.859Z,5072.00
2023-04-16T07:12:31.833Z,4580.00
2023-04-16T07:13:31.826Z,4752.00
2023-04-16T07:14:32.559Z,5064.00
2023-04-16T07:15:31.811Z,5272.00
2023-04-16T07:16:31.822Z,5456.00
2023-04-16T07:17:31.780Z,5856.00
2023-04-16T07:18:31.767Z,6108.00
2023-04-16T07:19:31.774Z,5756.00
2023-04-16T07:20:31.773Z,5932.00
2023-04-16T07:21:31.710Z,5956.00
2023-04-16T07:22:31.736Z,5420.00
2023-04-16T07:23:31.674Z,6028.00
2023-04-16T07:24:31.920Z,6712.00
2023-04-16T07:25:31.655Z,7388.00
2023-04-16T07:26:31.674Z,6976.00
2023-04-16T07:27:31.646Z,7228.00
2023-04-16T07:28:31.625Z,6988.00
2023-04-16T07:29:31.852Z,7580.00
2023-04-16T07:30:31.632Z,8148.00
2023-04-16T07:31:31.736Z,7792.00
2023-04-16T07:32:31.624Z,8172.00
2023-04-16T07:33:31.555Z,8624.00
2023-04-16T07:34:31.557Z,8808.00
2023-04-16T07:35:31.548Z,8764.00
2023-04-16T07:36:31.544Z,9392.00
2023-04-16T07:37:31.511Z,9480.00
2023-04-16T07:38:31.573Z,9264.00
2023-04-16T07:39:31.487Z,9160.00
2023-04-16T07:40:31.487Z,9372.00
2023-04-16T07:41:31.470Z,9616.00
2023-04-16T07:42:31.491Z,9508.00
2023-04-16T07:43:31.426Z,9276.00
2023-04-16T07:44:31.547Z,9772.00
2023-04-16T07:45:31.442Z,9708.00
2023-04-16T07:46:45.718Z,8944.00
2023-04-16T07:47:31.415Z,8372.00
2023-04-16T07:48:31.381Z,8988.00
2023-04-16T07:49:31.344Z,9380.00
2023-04-16T07:50:31.390Z,9284.00
2023-04-16T07:51:31.369Z,8680.00
2023-04-16T07:52:31.325Z,8136.00
2023-04-16T07:53:31.287Z,8168.00
2023-04-16T07:54:31.348Z,8356.00
2023-04-16T07:55:31.272Z,8128.00
2023-04-16T07:56:31.310Z,8040.00
2023-04-16T07:57:31.273Z,8000.00
2023-04-16T07:58:31.245Z,7816.00
2023-04-16T07:59:31.242Z,7444.00
2023-04-16T08:00:31.231Z,7592.00
2023-04-16T08:01:31.215Z,8032.00
2023-04-16T08:02:31.308Z,7788.00
2023-04-16T08:03:31.409Z,7864.00
2023-04-16T08:04:31.351Z,8296.00
2023-04-16T08:05:31.147Z,8976.00
2023-04-16T08:06:31.138Z,9576.00
2023-04-16T08:07:32.798Z,9816.00
2023-04-16T08:08:31.148Z,9552.00
2023-04-16T08:09:31.101Z,8544.00
2023-04-16T08:10:31.088Z,8944.00
2023-04-16T08:11:31.099Z,10284.00
2023-04-16T08:12:31.069Z,10892.00
2023-04-16T08:13:33.419Z,11348.00
2023-04-16T08:14:31.088Z,11204.00
2023-04-16T08:15:31.065Z,10708.00
2023-04-16T08:16:30.998Z,10536.00
2023-04-16T08:17:31.050Z,10176.00
2023-04-16T08:18:31.021Z,9316.00
2023-04-16T08:19:30.976Z,7916.00
2023-04-16T08:20:30.976Z,7560.00
2023-04-16T08:21:30.953Z,8136.00
2023-04-16T08:22:30.935Z,7772.00
2023-04-16T08:23:30.942Z,6884.00
2023-04-16T08:24:30.894Z,6368.00
2023-04-16T08:25:30.882Z,7240.00
2023-04-16T08:26:30.924Z,8028.00
2023-04-16T08:27:30.875Z,7900.00
2023-04-16T08:28:30.862Z,8192.00
2023-04-16T08:29:30.845Z,9192.00
2023-04-16T08:30:30.821Z,9668.00
2023-04-16T08:31:30.851Z,9624.00
2023-04-16T08:32:30.868Z,9356.00
2023-04-16T08:33:30.821Z,9048.00
2023-04-16T08:34:30.780Z,8864.00
2023-04-16T08:35:30.783Z,8876.00
2023-04-16T08:36:30.752Z,9148.00
2023-04-16T08:37:30.744Z,9732.00
2023-04-16T08:38:30.843Z,9828.00
2023-04-16T08:39:30.740Z,10084.00
2023-04-16T08:40:30.706Z,10828.00
2023-04-16T08:41:30.716Z,10820.00
2023-04-16T08:42:30.708Z,10208.00
2023-04-16T08:43:30.676Z,9360.00
2023-04-16T08:44:30.769Z,9360.00
2023-04-16T08:45:30.632Z,10336.00
2023-04-16T08:46:30.638Z,10880.00
2023-04-16T08:47:30.646Z,10676.00
2023-04-16T08:48:30.596Z,10168.00
2023-04-16T08:49:30.575Z,9428.00
2023-04-16T08:50:30.621Z,9412.00
2023-04-16T08:51:30.569Z,9824.00
2023-04-16T08:52:30.596Z,10036.00
2023-04-16T08:53:30.553Z,10172.00
2023-04-16T08:54:30.526Z,9844.00
2023-04-16T08:55:30.542Z,9220.00
2023-04-16T08:56:30.487Z,9652.00
2023-04-16T08:57:30.551Z,10656.00
2023-04-16T08:58:30.466Z,9812.00
2023-04-16T08:59:30.474Z,9396.00
2023-04-16T09:00:30.494Z,10920.00
2023-04-16T09:01:30.454Z,11844.00
2023-04-16T09:02:30.615Z,10412.00
2023-04-16T09:03:30.504Z,9804.00
2023-04-16T09:04:30.530Z,11236.00
2023-04-16T09:05:30.398Z,11880.00
2023-04-16T09:06:30.389Z,12112.00
2023-04-16T09:07:30.352Z,12712.00
2023-04-16T09:08:30.342Z,12888.00
2023-04-16T09:09:30.327Z,13172.00
2023-04-16T09:10:30.320Z,12536.00
2023-04-16T09:11:30.313Z,10424.00
2023-04-16T09:12:30.286Z,8704.00
2023-04-16T09:13:30.278Z,9492.00
2023-04-16T09:14:30.288Z,10328.00
2023-04-16T09:15:30.255Z,9928.00
2023-04-16T09:16:30.343Z,10500.00
2023-04-16T09:17:30.309Z,10504.00
2023-04-16T09:18:30.213Z,9832.00
2023-04-16T09:19:30.224Z,10352.00
2023-04-16T09:20:30.193Z,10764.00
2023-04-16T09:21:30.222Z,10728.00
2023-04-16T09:22:30.164Z,11084.00
2023-04-16T09:23:30.186Z,10508.00
2023-04-16T09:24:30.150Z,10196.00
2023-04-16T09:25:30.121Z,9644.00
2023-04-16T09:26:30.131Z,10712.00
2023-04-16T09:27:30.108Z,10412.00
2023-04-16T09:28:30.122Z,8260.00
2023-04-16T09:29:30.092Z,7760.00
2023-04-16T09:30:30.077Z,10168.00
2023-04-16T09:31:30.074Z,12992.00
2023-04-16T09:32:30.068Z,14296.00
2023-04-16T09:33:30.014Z,14132.00
2023-04-16T09:34:30.027Z,13556.00
2023-04-16T09:35:30.022Z,12444.00
2023-04-16T09:36:29.989Z,11124.00
2023-04-16T09:37:29.976Z,9260.00
2023-04-16T09:38:30.592Z,9476.00
2023-04-16T09:39:29.968Z,12260.00
2023-04-16T09:40:29.931Z,14236.00
2023-04-16T09:41:29.958Z,13688.00
2023-04-16T09:42:29.912Z,11148.00
2023-04-16T09:43:29.889Z,9740.00
2023-04-16T09:44:29.885Z,9656.00
2023-04-16T09:45:29.899Z,11112.00
2023-04-16T09:46:29.993Z,11768.00
2023-04-16T09:47:29.893Z,11356.00
2023-04-16T09:48:29.871Z,12404.00
2023-04-16T09:49:29.821Z,11804.00
2023-04-16T09:50:29.818Z,10456.00
2023-04-16T09:51:29.795Z,10052.00
2023-04-16T09:52:29.822Z,12408.00
2023-04-16T09:53:29.812Z,15156.00
2023-04-16T09:54:29.775Z,15076.00
2023-04-16T09:55:29.764Z,13044.00
2023-04-16T09:56:30.550Z,11524.00
2023-04-16T09:57:29.762Z,11188.00
2023-04-16T09:58:29.768Z,12064.00
2023-04-16T09:59:29.699Z,10508.00
2023-04-16T10:00:29.712Z,7980.00
2023-04-16T10:01:29.824Z,7068.00
2023-04-16T10:02:29.725Z,7068.00
2023-04-16T10:03:29.817Z,8480.00
2023-04-16T10:04:29.702Z,9272.00
2023-04-16T10:05:29.628Z,8968.00
2023-04-16T10:06:29.613Z,8472.00
2023-04-16T10:07:29.593Z,9492.00
2023-04-16T10:08:29.621Z,10528.00
2023-04-16T10:09:29.557Z,10444.00
2023-04-16T10:10:29.586Z,10252.00
2023-04-16T10:11:29.545Z,10496.00
2023-04-16T10:12:29.525Z,10280.00
2023-04-16T10:13:29.511Z,8596.00
2023-04-16T10:14:29.502Z,7240.00
2023-04-16T10:15:29.511Z,6844.00
2023-04-16T10:16:29.530Z,6852.00
2023-04-16T10:17:29.480Z,7160.00
2023-04-16T10:18:29.428Z,8168.00
2023-04-16T10:19:29.433Z,8660.00
2023-04-16T10:20:29.438Z,8676.00
2023-04-16T10:21:29.476Z,8860.00
2023-04-16T10:22:29.399Z,9724.00
2023-04-16T10:23:29.376Z,11036.00
2023-04-16T10:24:29.374Z,11496.00
2023-04-16T10:25:29.406Z,11208.00
2023-04-16T10:26:29.366Z,10752.00
2023-04-16T10:27:29.346Z,9980.00
2023-04-16T10:28:29.317Z,8928.00
2023-04-16T10:29:29.309Z,8344.00
2023-04-16T10:30:29.335Z,7752.00
2023-04-16T10:31:29.465Z,7304.00
2023-04-16T10:32:29.298Z,7852.00
2023-04-16T10:33:29.280Z,8492.00
2023-04-16T10:34:29.250Z,9668.00
2023-04-16T10:35:29.245Z,11760.00
2023-04-16T10:36:29.242Z,14492.00
2023-04-16T10:37:29.237Z,17760.00
2023-04-16T10:38:29.198Z,20768.00
2023-04-16T10:39:29.174Z,22720.00
2023-04-16T10:40:29.170Z,23648.00
2023-04-16T10:41:29.188Z,24160.00
2023-04-16T10:42:29.144Z,24256.00
2023-04-16T10:43:29.162Z,23840.00
2023-04-16T10:44:29.104Z,22528.00
2023-04-16T10:45:29.097Z,20544.00
2023-04-16T10:46:29.132Z,17664.00
2023-04-16T10:47:29.170Z,15028.00
2023-04-16T10:48:35.725Z,13620.00
2023-04-16T10:49:29.084Z,12568.00
2023-04-16T10:50:29.043Z,11824.00
2023-04-16T10:51:29.035Z,11420.00
2023-04-16T10:52:29.021Z,11572.00
2023-04-16T10:53:29.003Z,11604.00
2023-04-16T10:54:29.006Z,11372.00
2023-04-16T10:55:28.993Z,11256.00
2023-04-16T10:56:29.031Z,11420.00
2023-04-16T10:57:28.933Z,12068.00
2023-04-16T10:58:28.928Z,12664.00
2023-04-16T10:59:28.907Z,12592.00
2023-04-16T11:00:28.944Z,12184.00
2023-04-16T11:01:28.923Z,11960.00
2023-04-16T11:02:29.237Z,11968.00
2023-04-16T11:03:29.013Z,11432.00
2023-04-16T11:04:28.926Z,10356.00
2023-04-16T11:05:28.852Z,9260.00
2023-04-16T11:06:28.839Z,8868.00
2023-04-16T11:07:28.830Z,8920.00
2023-04-16T11:08:28.859Z,8888.00
2023-04-16T11:09:28.776Z,8648.00
2023-04-16T11:10:28.792Z,8972.00
2023-04-16T11:11:28.759Z,9796.00
2023-04-16T11:12:28.750Z,11288.00
2023-04-16T11:13:28.754Z,12892.00
2023-04-16T11:14:28.714Z,13764.00
2023-04-16T11:15:28.722Z,13836.00
2023-04-16T11:16:28.724Z,13160.00
2023-04-16T11:17:28.699Z,12284.00
2023-04-16T11:18:28.685Z,11964.00
2023-04-16T11:19:28.680Z,12608.00
2023-04-16T11:20:28.643Z,13548.00
2023-04-16T11:21:28.672Z,13828.00
2023-04-16T11:22:28.624Z,13680.00
2023-04-16T11:23:28.625Z,13900.00
2023-04-16T11:24:28.606Z,14704.00
2023-04-16T11:25:28.578Z,15492.00
2023-04-16T11:26:28.605Z,15872.00
2023-04-16T11:27:28.599Z,15776.00
2023-04-16T11:28:28.537Z,15168.00
2023-04-16T11:29:28.520Z,14676.00
2023-04-16T11:30:28.518Z,14736.00
2023-04-16T11:31:28.538Z,15080.00
2023-04-16T11:32:28.579Z,16256.00
2023-04-16T11:33:28.524Z,17792.00
2023-04-16T11:34:28.478Z,18976.00
2023-04-16T11:35:28.465Z,19552.00
2023-04-16T11:36:28.475Z,19616.00
2023-04-16T11:37:28.439Z,19360.00
2023-04-16T11:38:28.432Z,18912.00
2023-04-16T11:39:28.460Z,18080.00
2023-04-16T11:40:28.383Z,16032.00
2023-04-16T11:41:28.402Z,13672.00
2023-04-16T11:42:28.507Z,10764.00
2023-04-16T11:43:28.345Z,10352.00
2023-04-16T11:44:28.360Z,9920.00
2023-04-16T11:45:28.338Z,10572.00
2023-04-16T11:46:28.392Z,11920.00
2023-04-16T11:47:28.350Z,14348.00
2023-04-16T11:48:28.286Z,16832.00
2023-04-16T11:49:28.291Z,17984.00
2023-04-16T11:50:28.347Z,18944.00
2023-04-16T11:51:28.242Z,19360.00
2023-04-16T11:52:28.254Z,19072.00
2023-04-16T11:53:28.228Z,18688.00
2023-04-16T11:54:28.232Z,19232.00
2023-04-16T11:55:28.209Z,20224.00
2023-04-16T11:56:28.200Z,20704.00
2023-04-16T11:57:28.181Z,20768.00
2023-04-16T11:58:28.170Z,20448.00
2023-04-16T11:59:28.174Z,20128.00
2023-04-16T12:00:28.174Z,20000.00
2023-04-16T12:01:28.115Z,20224.00
2023-04-16T12:02:28.227Z,20384.00
2023-04-16T12:03:28.290Z,20384.00
2023-04-16T12:04:28.158Z,20096.00
2023-04-16T12:05:28.068Z,19232.00
2023-04-16T12:06:28.049Z,17952.00
2023-04-16T12:07:28.076Z,16000.00
2023-04-16T12:08:28.053Z,14384.00
2023-04-16T12:09:28.006Z,13620.00
2023-04-16T12:10:28.017Z,13028.00
2023-04-16T12:11:27.988Z,12712.00
2023-04-16T12:12:28.100Z,11508.00
2023-04-16T12:13:28.087Z,11156.00
2023-04-16T12:14:27.985Z,12796.00
2023-04-16T12:15:27.976Z,14636.00
2023-04-16T12:16:27.956Z,16416.00
2023-04-16T12:17:27.938Z,17888.00
2023-04-16T12:18:27.960Z,19904.00
2023-04-16T12:19:27.918Z,22336.00
2023-04-16T12:20:27.883Z,23424.00
2023-04-16T12:21:27.875Z,24000.00
2023-04-16T12:22:27.845Z,24064.00
2023-04-16T12:23:27.850Z,23712.00
2023-04-16T12:24:27.832Z,23808.00
2023-04-16T12:25:27.828Z,23616.00
2023-04-16T12:26:27.846Z,22848.00
2023-04-16T12:27:27.781Z,21952.00
2023-04-16T12:28:27.812Z,21056.00
2023-04-16T12:29:27.774Z,21504.00